Time;durP1;ratioP1;P1;durP2;ratioP2;P2;SDS_P1;SDS_P2;PMS_P1;PMS_P2;Temp;Humidity;BMP_temperature;BMP_pressure;BME280_temperature;BME280_humidity;BME280_pressure;Samples;Min_cycle;Max_cycle;Signal;HPM_P1;HPM_P2
2024/02/14 00:00:26;;;;;;;3.25;1.50;;;;;;;5.67;100.00;100854.28;5202537;28;20025;-76
2024/02/14 00:02:57;;;;;;;4.68;1.52;;;;;;;5.82;100.00;100854.13;5200952;28;20386;-76
2024/02/14 00:05:28;;;;;;;2.65;1.20;;;;;;;5.81;100.00;100847.25;5201129;28;20041;-76
2024/02/14 00:07:58;;;;;;;4.88;1.73;;;;;;;5.78;100.00;100842.94;5198969;28;20057;-76
2024/02/14 00:10:29;;;;;;;4.90;1.75;;;;;;;5.72;100.00;100836.97;5193080;28;20164;-76
2024/02/14 00:12:59;;;;;;;5.15;1.42;;;;;;;5.72;100.00;100831.78;5182371;28;20475;-76
2024/02/14 00:15:29;;;;;;;4.30;1.50;;;;;;;5.73;100.00;100826.56;5203103;28;20029;-76
2024/02/14 00:18:00;;;;;;;4.00;1.42;;;;;;;5.78;100.00;100829.09;5197943;28;20479;-76
2024/02/14 00:20:32;;;;;;;7.20;1.60;;;;;;;5.83;100.00;100827.31;5202152;28;20032;-76
2024/02/14 00:23:02;;;;;;;3.58;1.30;;;;;;;5.86;100.00;100828.16;5184052;28;20116;-76
2024/02/14 00:25:33;;;;;;;5.55;1.67;;;;;;;5.85;100.00;100822.97;5192550;28;20022;-76
2024/02/14 00:28:03;;;;;;;2.58;1.20;;;;;;;5.94;100.00;100825.47;5199645;28;20021;-76
2024/02/14 00:30:34;;;;;;;5.47;1.33;;;;;;;6.08;100.00;100811.44;5187513;28;20021;-76
2024/02/14 00:33:04;;;;;;;3.85;1.65;;;;;;;6.09;100.00;100810.53;5200686;28;20570;-76
2024/02/14 00:35:34;;;;;;;4.05;1.40;;;;;;;6.05;100.00;100815.81;5203131;28;20025;-76
2024/02/14 00:38:05;;;;;;;4.22;1.33;;;;;;;6.04;100.00;100808.88;5203044;28;20065;-76
2024/02/14 00:40:35;;;;;;;3.85;1.48;;;;;;;6.06;100.00;100804.56;5204441;28;20025;-76
2024/02/14 00:43:05;;;;;;;6.07;1.63;;;;;;;6.14;100.00;100806.16;5206000;28;20033;-76
2024/02/14 00:45:38;;;;;;;5.22;1.50;;;;;;;6.16;100.00;100800.94;5204716;28;20036;-76
2024/02/14 00:48:08;;;;;;;5.82;1.40;;;;;;;6.12;100.00;100801.88;5205642;28;20021;-76
2024/02/14 00:50:38;;;;;;;3.55;1.35;;;;;;;6.13;100.00;100799.28;5203882;28;20025;-76
2024/02/14 00:53:09;;;;;;;5.40;1.48;;;;;;;6.07;100.00;100798.50;5205735;28;20040;-76
2024/02/14 00:55:39;;;;;;;4.90;1.58;;;;;;;6.10;100.00;100795.84;5193991;28;20830;-75
2024/02/14 00:58:10;;;;;;;2.85;1.38;;;;;;;6.08;100.00;100805.41;5205935;28;20068;-76
2024/02/14 01:00:40;;;;;;;3.75;1.50;;;;;;;6.30;100.00;100796.41;5205126;28;20037;-76
2024/02/14 01:03:12;;;;;;;3.03;1.27;;;;;;;6.20;100.00;100800.88;5206268;28;20474;-76
2024/02/14 01:05:43;;;;;;;5.03;1.40;;;;;;;6.20;100.00;100797.41;5207682;28;20028;-76
2024/02/14 01:08:14;;;;;;;2.60;1.52;;;;;;;6.02;100.00;100797.69;5205727;28;20044;-76
2024/02/14 01:10:46;;;;;;;3.55;1.52;;;;;;;6.03;100.00;100794.19;5185061;28;20116;-76
2024/02/14 01:13:18;;;;;;;5.18;1.60;;;;;;;5.95;100.00;100798.66;5189228;28;20081;-76
2024/02/14 01:15:48;;;;;;;2.85;1.38;;;;;;;5.95;100.00;100794.31;5206353;28;20432;-76
2024/02/14 01:18:18;;;;;;;4.07;1.48;;;;;;;6.12;100.00;100794.09;5202075;28;20037;-76
2024/02/14 01:20:48;;;;;;;5.32;1.70;;;;;;;6.09;100.00;100784.59;5191665;28;20492;-76
2024/02/14 01:23:19;;;;;;;4.63;1.40;;;;;;;6.09;100.00;100781.16;5198559;28;20060;-76
2024/02/14 01:25:50;;;;;;;2.22;1.40;;;;;;;6.05;100.00;100782.09;5200664;28;20471;-76
2024/02/14 01:28:20;;;;;;;3.85;1.50;;;;;;;5.97;100.00;100783.91;5201419;28;20025;-76
2024/02/14 01:30:51;;;;;;;4.43;1.20;;;;;;;5.85;100.00;100777.16;5201178;28;20096;-76
2024/02/14 01:33:21;;;;;;;4.07;1.65;;;;;;;5.82;100.00;100772.03;5202345;28;20032;-76
2024/02/14 01:35:51;;;;;;;2.50;1.42;;;;;;;5.82;100.00;100760.78;5201667;28;20238;-76
2024/02/14 01:38:22;;;;;;;4.50;1.52;;;;;;;5.80;100.00;100759.94;5194279;28;20629;-76
2024/02/14 01:40:52;;;;;;;2.50;1.33;;;;;;;5.72;100.00;100760.00;5201916;28;20025;-76
2024/02/14 01:43:22;;;;;;;4.43;1.90;;;;;;;5.69;100.00;100757.47;5200917;28;20033;-76
2024/02/14 01:45:53;;;;;;;15.95;5.18;;;;;;;5.83;100.00;100746.94;5184282;28;20064;-76
2024/02/14 01:48:23;;;;;;;6.72;1.85;;;;;;;5.95;100.00;100741.59;5200733;28;20037;-76
2024/02/14 01:50:54;;;;;;;4.30;1.65;;;;;;;5.77;100.00;100736.63;5184732;28;20074;-76
2024/02/14 01:53:25;;;;;;;5.22;1.25;;;;;;;5.76;100.00;100734.91;5200194;28;20099;-76
2024/02/14 01:55:59;;;;;;;6.80;2.00;;;;;;;5.77;100.00;100742.66;5196376;28;20028;-76
2024/02/14 01:58:30;;;;;;;3.13;1.38;;;;;;;5.70;100.00;100743.63;5201878;28;20037;-76
2024/02/14 02:01:00;;;;;;;4.13;1.50;;;;;;;5.62;100.00;100739.44;5199641;28;20448;-76
2024/02/14 02:03:35;;;;;;;3.97;1.48;;;;;;;5.76;100.00;100740.94;5199836;28;20025;-76
2024/02/14 02:06:06;;;;;;;5.00;1.58;;;;;;;5.74;100.00;100744.47;5183539;28;20337;-76
2024/02/14 02:08:36;;;;;;;2.97;1.55;;;;;;;5.63;100.00;100738.53;5199579;28;20052;-76
2024/02/14 02:11:07;;;;;;;4.05;1.42;;;;;;;5.72;100.00;100731.50;5200490;28;20029;-76
2024/02/14 02:13:38;;;;;;;4.25;1.58;;;;;;;5.78;100.00;100730.56;5201393;28;20589;-76
2024/02/14 02:16:09;;;;;;;4.18;1.50;;;;;;;5.83;100.00;100727.06;5200592;28;20375;-76
2024/02/14 02:18:39;;;;;;;6.00;1.40;;;;;;;5.98;100.00;100725.97;5202404;28;20037;-76
2024/02/14 02:21:12;;;;;;;1.92;1.17;;;;;;;6.00;100.00;100724.22;5185827;28;20032;-76
2024/02/14 02:23:45;;;;;;;7.07;1.65;;;;;;;6.11;100.00;100714.53;5203895;28;20037;-76
2024/02/14 02:26:15;;;;;;;3.00;1.60;;;;;;;6.12;100.00;100714.50;5198931;28;20042;-76
2024/02/14 02:28:46;;;;;;;7.10;1.73;;;;;;;6.15;100.00;100708.41;5202528;28;20387;-76
2024/02/14 02:31:17;;;;;;;3.55;1.42;;;;;;;6.17;100.00;100706.66;5200344;28;20060;-75
2024/02/14 02:33:47;;;;;;;3.58;1.60;;;;;;;6.19;100.00;100705.75;5183138;28;20041;-75
2024/02/14 02:36:17;;;;;;;6.65;1.90;;;;;;;6.21;100.00;100705.72;5204799;28;20029;-76
2024/02/14 02:38:48;;;;;;;4.65;1.67;;;;;;;6.19;100.00;100700.56;5208196;28;20064;-76
2024/02/14 02:41:18;;;;;;;4.07;1.75;;;;;;;6.20;100.00;100691.03;5203852;28;20031;-76
2024/02/14 02:43:50;;;;;;;4.82;1.70;;;;;;;6.25;100.00;100690.09;5204096;28;20418;-76
2024/02/14 02:46:22;;;;;;;5.32;2.05;;;;;;;6.07;100.00;100694.72;5203204;28;20029;-76
2024/02/14 02:48:54;;;;;;;3.53;1.70;;;;;;;6.20;100.00;100683.25;5203791;28;20236;-76
2024/02/14 02:51:25;;;;;;;3.70;1.50;;;;;;;6.09;100.00;100686.03;5206845;28;20035;-76
2024/02/14 02:53:55;;;;;;;3.35;1.58;;;;;;;6.20;100.00;100684.13;5202089;28;20349;-76
2024/02/14 02:56:27;;;;;;;3.78;1.50;;;;;;;6.29;100.00;100680.53;5202761;28;20037;-76
2024/02/14 02:58:58;;;;;;;3.42;1.60;;;;;;;6.23;100.00;100685.81;5204316;28;20113;-76
2024/02/14 03:01:30;;;;;;;5.88;1.65;;;;;;;6.33;100.00;100693.44;5203478;28;20517;-76
2024/02/14 03:04:01;;;;;;;3.50;1.77;;;;;;;6.21;100.00;100685.84;5187352;28;20036;-76
2024/02/14 03:06:31;;;;;;;5.38;1.98;;;;;;;6.22;100.00;100689.31;5208604;28;20029;-76
2024/02/14 03:09:01;;;;;;;5.35;2.20;;;;;;;6.26;100.00;100691.78;5205713;28;20108;-76
2024/02/14 03:11:31;;;;;;;5.47;1.60;;;;;;;6.30;100.00;100682.22;5204231;28;20506;-76
2024/02/14 03:14:02;;;;;;;3.25;1.83;;;;;;;6.36;100.00;100679.53;5205094;28;20037;-76
2024/02/14 03:16:32;;;;;;;5.28;1.88;;;;;;;6.42;100.00;100680.28;5205616;28;20072;-76
2024/02/14 03:19:03;;;;;;;3.70;1.70;;;;;;;6.38;100.00;100672.56;5204350;28;20029;-76
2024/02/14 03:21:35;;;;;;;3.20;1.70;;;;;;;6.50;100.00;100667.16;5202043;28;20151;-76
2024/02/14 03:24:05;;;;;;;6.13;1.67;;;;;;;6.44;100.00;100667.28;5186719;28;20025;-76
2024/02/14 03:26:36;;;;;;;5.57;1.90;;;;;;;6.47;100.00;100656.84;5201968;28;20023;-76
2024/02/14 03:29:06;;;;;;;4.30;2.10;;;;;;;6.40;100.00;100660.44;5187320;28;20723;-76
2024/02/14 03:31:36;;;;;;;5.95;1.70;;;;;;;6.34;100.00;100656.22;5203373;28;20107;-76
2024/02/14 03:34:07;;;;;;;4.72;2.00;;;;;;;6.39;100.00;100650.94;5204421;28;20452;-76
2024/02/14 03:36:38;;;;;;;4.25;1.95;;;;;;;6.42;100.00;100645.69;5205796;28;20034;-76
2024/02/14 03:39:08;;;;;;;4.15;2.00;;;;;;;6.38;100.00;100650.06;5186869;28;20117;-76
2024/02/14 03:41:39;;;;;;;6.25;1.90;;;;;;;6.45;100.00;100645.63;5204976;28;20112;-76
2024/02/14 03:44:09;;;;;;;5.85;2.20;;;;;;;6.39;100.00;100643.16;5205903;28;20481;-76
2024/02/14 03:46:39;;;;;;;4.90;1.77;;;;;;;6.39;100.00;100643.16;5203296;28;20026;-76
2024/02/14 03:49:10;;;;;;;5.10;1.60;;;;;;;6.36;100.00;100641.47;5203612;28;20307;-76
2024/02/14 03:51:40;;;;;;;6.65;2.58;;;;;;;6.40;100.00;100634.50;5204410;28;20028;-76
2024/02/14 03:54:11;;;;;;;6.35;1.70;;;;;;;6.45;100.00;100632.66;5199836;28;20040;-76
2024/02/14 03:56:41;;;;;;;4.72;1.70;;;;;;;6.49;100.00;100636.91;5205001;28;20022;-77
2024/02/14 03:59:14;;;;;;;7.18;2.00;;;;;;;6.49;100.00;100631.72;5227541;22;20045;-77
2024/02/14 04:01:45;;;;;;;5.88;2.00;;;;;;;6.47;100.00;100628.28;5207730;28;20033;-77
2024/02/14 04:04:16;;;;;;;6.82;2.50;;;;;;;6.39;100.00;100619.81;5202735;28;20106;-77
2024/02/14 04:06:46;;;;;;;5.18;2.00;;;;;;;6.41;100.00;100618.03;5206329;28;20056;-77
2024/02/14 04:09:17;;;;;;;5.57;2.00;;;;;;;6.43;100.00;100618.84;5203210;28;20040;-77
2024/02/14 04:11:49;;;;;;;4.50;1.77;;;;;;;6.45;100.00;100624.88;5190612;28;20413;-77
2024/02/14 04:14:19;;;;;;;7.65;2.25;;;;;;;6.50;100.00;100617.84;5191697;28;20104;-77
2024/02/14 04:16:49;;;;;;;7.72;2.28;;;;;;;6.55;100.00;100616.00;5191545;28;20187;-78
2024/02/14 04:19:20;;;;;;;3.22;1.55;;;;;;;6.58;100.00;100611.63;5188607;28;20022;-77
2024/02/14 04:21:50;;;;;;;4.45;2.00;;;;;;;6.56;100.00;100605.59;5189456;28;20556;-76
2024/02/14 04:24:21;;;;;;;9.25;2.33;;;;;;;6.60;100.00;100604.66;5208240;28;20548;-77
2024/02/14 04:26:54;;;;;;;5.72;2.10;;;;;;;6.56;100.00;100609.97;5206613;28;20060;-76
2024/02/14 04:29:25;;;;;;;4.82;1.80;;;;;;;6.56;100.00;100602.19;5208816;28;20048;-75
2024/02/14 04:31:56;;;;;;;5.57;1.77;;;;;;;6.56;100.00;100607.38;5186474;28;20025;-74
2024/02/14 04:34:26;;;;;;;6.18;1.80;;;;;;;6.72;100.00;100591.44;5208557;28;20048;-75
2024/02/14 04:36:57;;;;;;;5.70;1.80;;;;;;;6.78;100.00;100593.06;5208910;28;20514;-75
2024/02/14 04:39:27;;;;;;;4.13;1.83;;;;;;;6.84;100.00;100583.41;5206513;28;20040;-75
2024/02/14 04:41:58;;;;;;;6.13;1.88;;;;;;;6.91;100.00;100578.97;5201524;28;20029;-75
2024/02/14 04:44:29;;;;;;;7.45;1.65;;;;;;;6.79;100.00;100587.00;5208755;28;20025;-75
2024/02/14 04:46:59;;;;;;;4.38;1.50;;;;;;;6.85;100.00;100569.53;5208680;28;20036;-75
2024/02/14 04:49:29;;;;;;;2.70;1.52;;;;;;;6.88;100.00;100573.78;5187451;28;20371;-75
2024/02/14 04:52:00;;;;;;;5.18;1.48;;;;;;;6.85;100.00;100569.53;5205337;28;20029;-75
2024/02/14 04:54:30;;;;;;;4.82;1.45;;;;;;;6.95;100.00;100562.41;5189602;28;20706;-75
2024/02/14 04:57:00;;;;;;;6.25;1.48;;;;;;;6.96;100.00;100558.94;5206460;28;20068;-75
2024/02/14 04:59:31;;;;;;;4.93;1.60;;;;;;;7.04;100.00;100564.78;5208167;28;20509;-75
2024/02/14 05:02:01;;;;;;;5.25;1.70;;;;;;;7.03;100.00;100555.28;5203125;28;20091;-74
2024/02/14 05:04:31;;;;;;;5.90;1.70;;;;;;;7.09;100.00;100553.41;5207218;28;20031;-74
2024/02/14 05:07:02;;;;;;;4.97;1.52;;;;;;;7.12;100.00;100537.75;5208481;28;20032;-74
2024/02/14 05:09:32;;;;;;;3.53;1.50;;;;;;;7.13;100.00;100538.63;5207735;28;20032;-75
2024/02/14 05:12:03;;;;;;;7.88;1.20;;;;;;;7.08;100.00;100551.72;5207016;28;20082;-74
2024/02/14 05:14:37;;;;;;;5.50;1.58;;;;;;;7.14;100.00;100548.13;5203091;28;20025;-74
2024/02/14 05:17:08;;;;;;;3.38;1.77;;;;;;;7.20;100.00;100540.19;5206484;28;20049;-75
2024/02/14 05:19:41;;;;;;;3.05;1.30;;;;;;;7.11;100.00;100556.84;5201272;28;20068;-75
2024/02/14 05:22:12;;;;;;;7.05;1.52;;;;;;;7.19;100.00;100561.88;5202702;28;20091;-76
2024/02/14 05:24:42;;;;;;;4.15;1.38;;;;;;;7.20;100.00;100559.25;5208842;28;20642;-75
2024/02/14 05:27:12;;;;;;;3.88;1.38;;;;;;;7.18;100.00;100553.25;5207057;28;20044;-76
2024/02/14 05:29:42;;;;;;;3.45;1.40;;;;;;;7.17;100.00;100561.06;5189838;28;20026;-76
2024/02/14 05:32:13;;;;;;;6.18;1.85;;;;;;;7.16;100.00;100560.22;5188602;28;20124;-76
2024/02/14 05:34:44;;;;;;;7.25;1.77;;;;;;;7.24;100.00;100562.66;5191347;28;20033;-76
2024/02/14 05:37:14;;;;;;;3.67;1.30;;;;;;;7.35;100.00;100564.94;5207432;28;20033;-76
2024/02/14 05:39:45;;;;;;;4.28;1.27;;;;;;;7.37;100.00;100555.34;5208968;28;20021;-76
2024/02/14 05:42:18;;;;;;;4.10;1.60;;;;;;;7.44;100.00;100551.75;5189563;28;20134;-76
2024/02/14 05:44:48;;;;;;;6.05;1.55;;;;;;;7.37;100.00;100564.91;5204623;28;20530;-76
2024/02/14 05:47:19;;;;;;;4.55;1.42;;;;;;;7.36;100.00;100558.84;5207359;28;20181;-75
2024/02/14 05:49:49;;;;;;;3.00;1.40;;;;;;;7.48;100.00;100553.38;5188903;28;20032;-76
2024/02/14 05:52:20;;;;;;;3.55;1.58;;;;;;;7.50;100.00;100549.00;5207190;28;20083;-75
2024/02/14 05:54:50;;;;;;;4.53;1.58;;;;;;;7.47;100.00;100549.06;5188412;28;20044;-76
2024/02/14 05:57:21;;;;;;;7.35;1.98;;;;;;;7.63;100.00;100541.75;5206529;28;20033;-76
2024/02/14 05:59:51;;;;;;;5.28;1.40;;;;;;;7.56;100.00;100546.25;5189627;28;20461;-76
2024/02/14 06:02:21;;;;;;;3.25;1.42;;;;;;;7.57;100.00;100542.78;5203625;28;20471;-76
2024/02/14 06:04:52;;;;;;;6.25;1.38;;;;;;;7.58;100.00;100547.09;5206805;28;20286;-76
2024/02/14 06:07:22;;;;;;;2.67;1.30;;;;;;;7.54;100.00;100541.97;5205672;28;20032;-76
2024/02/14 06:09:52;;;;;;;5.93;1.38;;;;;;;7.63;100.00;100552.16;5205689;28;20478;-76
2024/02/14 06:12:23;;;;;;;4.07;1.35;;;;;;;7.72;100.00;100544.13;5205553;28;20074;-76
2024/02/14 06:14:53;;;;;;;5.68;1.58;;;;;;;7.76;100.00;100533.63;5186263;28;20094;-76
2024/02/14 06:17:23;;;;;;;7.25;1.45;;;;;;;7.67;100.00;100533.00;5188463;28;20029;-76
2024/02/14 06:19:54;;;;;;;5.25;1.48;;;;;;;7.76;100.00;100535.34;5204221;28;20036;-76
2024/02/14 06:22:25;;;;;;;6.85;1.35;;;;;;;7.78;100.00;100531.84;5185789;28;20028;-76
2024/02/14 06:24:55;;;;;;;4.93;1.60;;;;;;;7.70;100.00;100528.56;5204312;28;20528;-75
2024/02/14 06:27:25;;;;;;;3.05;1.38;;;;;;;7.74;100.00;100537.97;5204787;28;20126;-76
2024/02/14 06:29:56;;;;;;;3.17;1.50;;;;;;;7.79;100.00;100541.34;5187438;28;20125;-76
2024/02/14 06:32:27;;;;;;;6.57;1.63;;;;;;;7.86;100.00;100540.28;5186991;28;20025;-76
2024/02/14 06:34:57;;;;;;;6.18;1.67;;;;;;;7.85;100.00;100537.75;5204052;28;20561;-76
2024/02/14 06:37:27;;;;;;;3.33;1.25;;;;;;;7.84;100.00;100542.09;5188694;28;20028;-76
2024/02/14 06:39:58;;;;;;;5.22;1.30;;;;;;;7.91;100.00;100537.59;5203129;28;20056;-76
2024/02/14 06:42:28;;;;;;;4.38;1.65;;;;;;;7.97;100.00;100540.88;5184775;28;20033;-76
2024/02/14 06:44:58;;;;;;;3.33;1.50;;;;;;;7.91;100.00;100538.41;5205019;28;20033;-76
2024/02/14 06:47:29;;;;;;;4.13;1.45;;;;;;;7.96;100.00;100551.31;5198821;28;20028;-75
2024/02/14 06:50:00;;;;;;;4.00;1.40;;;;;;;7.94;100.00;100545.31;5201019;28;20017;-76
2024/02/14 06:52:30;;;;;;;9.57;1.50;;;;;;;8.05;100.00;100551.94;5198158;28;20036;-76
2024/02/14 06:55:03;;;;;;;4.00;1.38;;;;;;;8.01;100.00;100552.06;5201328;28;20036;-76
2024/02/14 06:57:34;;;;;;;2.80;1.27;;;;;;;8.10;100.00;100557.91;5200537;28;20032;-76
2024/02/14 07:00:08;;;;;;;3.28;1.35;;;;;;;8.10;100.00;100555.31;5166289;28;20490;-76
2024/02/14 07:02:39;;;;;;;3.30;1.48;;;;;;;8.11;100.00;100561.34;5198039;28;20138;-76
2024/02/14 07:05:12;;;;;;;2.60;1.40;;;;;;;8.18;100.00;100569.00;5173316;28;20041;-75
2024/02/14 07:07:42;;;;;;;6.15;1.58;;;;;;;8.15;100.00;100566.44;5199935;28;20490;-76
2024/02/14 07:10:13;;;;;;;2.80;1.40;;;;;;;8.21;100.00;100568.06;5180255;28;20040;-76
2024/02/14 07:12:43;;;;;;;5.00;1.50;;;;;;;8.12;100.00;100563.91;5196085;28;20025;-76
2024/02/14 07:15:13;;;;;;;4.55;1.30;;;;;;;8.09;100.00;100569.22;5195102;28;20124;-76
2024/02/14 07:17:44;;;;;;;3.60;1.50;;;;;;;8.11;100.00;100563.94;5195356;28;20025;-76
2024/02/14 07:20:15;;;;;;;4.82;1.52;;;;;;;8.14;100.00;100567.34;5195807;28;20116;-76
2024/02/14 07:22:47;;;;;;;2.83;1.48;;;;;;;8.05;100.00;100564.13;5177131;28;20482;-76
2024/02/14 07:25:17;;;;;;;6.72;1.90;;;;;;;8.13;100.00;100570.81;5197526;28;20021;-76
2024/02/14 07:27:49;;;;;;;4.18;1.63;;;;;;;8.13;100.00;100585.56;5196772;28;20029;-76
2024/02/14 07:30:19;;;;;;;4.15;1.70;;;;;;;8.22;100.00;100583.63;5195838;28;20439;-74
2024/02/14 07:32:51;;;;;;;7.00;1.55;;;;;;;8.09;100.00;100577.03;5202423;28;20033;-76
2024/02/14 07:35:21;;;;;;;3.85;1.65;;;;;;;8.08;100.00;100577.03;5202991;28;20025;-75
2024/02/14 07:37:52;;;;;;;4.88;1.55;;;;;;;8.08;100.00;100583.09;5181149;28;20021;-76
2024/02/14 07:40:22;;;;;;;3.45;1.70;;;;;;;8.11;100.00;100579.56;5199624;28;20073;-76
2024/02/14 07:42:52;;;;;;;4.93;1.73;;;;;;;8.17;100.00;100580.25;5184294;28;20036;-76
2024/02/14 07:45:23;;;;;;;4.88;1.50;;;;;;;8.26;100.00;100574.88;5201577;28;20029;-76
2024/02/14 07:47:53;;;;;;;4.45;1.50;;;;;;;8.26;100.00;100572.25;5204038;28;20261;-76
2024/02/14 07:50:23;;;;;;;6.95;1.60;;;;;;;8.23;100.00;100569.72;5203116;28;20033;-76
2024/02/14 07:52:54;;;;;;;5.45;1.50;;;;;;;8.22;100.00;100580.19;5204949;28;20025;-76
2024/02/14 07:55:24;;;;;;;7.10;1.75;;;;;;;8.18;100.00;100579.41;5182809;28;20032;-76
2024/02/14 07:57:55;;;;;;;5.07;1.80;;;;;;;8.22;100.00;100575.81;5206904;28;20039;-76
2024/02/14 08:00:25;;;;;;;5.45;1.75;;;;;;;8.23;100.00;100580.13;5204495;28;20029;-76
2024/02/14 08:02:55;;;;;;;4.05;1.63;;;;;;;8.19;100.00;100581.09;5205421;28;20028;-76
2024/02/14 08:05:25;;;;;;;7.15;1.52;;;;;;;8.20;100.00;100571.56;5203117;28;20112;-76
2024/02/14 08:07:56;;;;;;;4.72;1.70;;;;;;;8.22;100.00;100574.97;5204036;28;20025;-76
2024/02/14 08:10:26;;;;;;;3.40;1.30;;;;;;;8.28;100.00;100567.00;5204803;28;20024;-76
2024/02/14 08:12:56;;;;;;;5.85;1.63;;;;;;;8.31;100.00;100574.72;5206803;28;20093;-76
2024/02/14 08:15:27;;;;;;;4.93;1.90;;;;;;;8.22;100.00;100573.22;5185385;28;20521;-76
2024/02/14 08:17:59;;;;;;;7.05;1.88;;;;;;;8.32;100.00;100566.00;5189197;28;20038;-76
2024/02/14 08:20:29;;;;;;;4.05;1.45;;;;;;;8.29;100.00;100582.59;5201620;28;20119;-76
2024/02/14 08:22:59;;;;;;;5.53;1.35;;;;;;;8.33;100.00;100572.94;5187068;28;20108;-76
2024/02/14 08:25:29;;;;;;;4.47;1.70;;;;;;;8.48;100.00;100575.13;5203584;28;20333;-76
2024/02/14 08:28:00;;;;;;;4.63;1.80;;;;;;;8.57;100.00;100573.13;5207181;28;20208;-76
2024/02/14 08:30:30;;;;;;;4.43;1.23;;;;;;;8.65;100.00;100576.38;5202834;28;20125;-77
2024/02/14 08:33:01;;;;;;;4.15;1.50;;;;;;;8.56;100.00;100570.56;5203764;28;20441;-76
2024/02/14 08:35:32;;;;;;;6.03;2.00;;;;;;;8.52;100.00;100572.41;5204923;28;20021;-76
2024/02/14 08:38:03;;;;;;;4.28;1.50;;;;;;;8.50;100.00;100571.59;5208790;28;20096;-77
2024/02/14 08:40:33;;;;;;;5.45;1.38;;;;;;;8.49;100.00;100569.88;5206471;28;20439;-77
2024/02/14 08:43:04;;;;;;;6.68;2.53;;;;;;;8.53;100.00;100578.47;5202642;28;20398;-77
2024/02/14 08:45:34;;;;;;;4.15;1.27;;;;;;;8.59;100.00;100581.75;5205968;28;20033;-75
2024/02/14 08:48:06;;;;;;;7.30;1.70;;;;;;;8.61;100.00;100584.31;5203013;28;20033;-76
2024/02/14 08:50:36;;;;;;;3.63;1.35;;;;;;;8.67;100.00;100584.13;5186181;28;20522;-77
2024/02/14 08:53:07;;;;;;;3.85;1.30;;;;;;;8.62;100.00;100589.50;5203320;28;20037;-77
2024/02/14 08:55:38;;;;;;;3.05;1.50;;;;;;;8.74;100.00;100578.72;5205289;28;20577;-77
2024/02/14 08:58:11;;;;;;;3.45;1.23;;;;;;;8.75;100.00;100580.41;5183202;28;20041;-77
2024/02/14 09:00:41;;;;;;;4.63;1.60;;;;;;;8.71;100.00;100593.59;5203137;28;20124;-77
2024/02/14 09:03:12;;;;;;;4.57;1.10;;;;;;;8.67;100.00;100587.63;5203948;28;20112;-77
2024/02/14 09:05:42;;;;;;;3.95;1.17;;;;;;;8.68;100.00;100591.94;5204851;28;20034;-77
2024/02/14 09:08:12;;;;;;;4.28;1.27;;;;;;;8.74;100.00;100598.72;5207181;28;20013;-77
2024/02/14 09:10:43;;;;;;;4.97;1.25;;;;;;;8.71;100.00;100602.25;5203624;28;20569;-77
2024/02/14 09:13:14;;;;;;;2.70;1.20;;;;;;;8.81;100.00;100601.13;5203090;28;20060;-77
2024/02/14 09:15:44;;;;;;;2.35;1.20;;;;;;;8.70;100.00;100604.91;5185597;28;20120;-77
2024/02/14 09:18:16;;;;;;;2.85;1.33;;;;;;;8.80;100.00;100599.41;5203022;28;20514;-77
2024/02/14 09:20:47;;;;;;;3.47;1.30;;;;;;;8.82;100.00;100605.44;5185858;28;20036;-77
2024/02/14 09:23:20;;;;;;;3.05;1.48;;;;;;;8.91;100.00;100610.38;5206153;28;20033;-77
2024/02/14 09:25:51;;;;;;;3.50;1.40;;;;;;;8.93;100.00;100602.50;5205617;28;20033;-77
2024/02/14 09:28:21;;;;;;;5.32;1.10;;;;;;;8.89;100.00;100612.16;5186000;28;20403;-76
2024/02/14 09:30:51;;;;;;;4.07;1.40;;;;;;;8.88;100.00;100605.25;5185445;28;20029;-77
2024/02/14 09:33:21;;;;;;;2.67;1.38;;;;;;;8.92;100.00;100600.81;5203791;28;20025;-76
2024/02/14 09:35:52;;;;;;;4.63;1.50;;;;;;;8.95;100.00;100612.00;5201971;28;20087;-77
2024/02/14 09:38:22;;;;;;;2.65;1.35;;;;;;;9.00;100.00;100610.13;5204999;28;20043;-75
2024/02/14 09:40:54;;;;;;;2.28;1.15;;;;;;;8.99;100.00;100608.41;5203912;28;20031;-76
2024/02/14 09:43:32;;;;;;;4.13;1.33;;;;;;;8.94;100.00;100618.13;5206798;28;20037;-76
2024/02/14 09:46:03;;;;;;;2.92;1.50;;;;;;;9.10;100.00;100606.34;5203863;28;20105;-77
2024/02/14 09:48:35;;;;;;;3.65;1.30;;;;;;;9.11;100.00;100617.63;5204573;28;20157;-77
2024/02/14 09:51:07;;;;;;;5.05;1.60;;;;;;;9.14;100.00;100614.03;5201931;28;20040;-76
2024/02/14 09:53:41;;;;;;;6.22;1.73;;;;;;;9.16;100.00;100608.78;5206574;28;20037;-77
2024/02/14 09:56:13;;;;;;;5.85;1.50;;;;;;;9.20;100.00;100613.00;5205059;28;20033;-75
2024/02/14 09:58:55;;;;;;;2.33;1.52;;;;;;;9.27;100.00;100615.38;5210026;28;20032;-77
2024/02/14 10:01:26;;;;;;;4.25;1.42;;;;;;;9.37;100.00;100616.81;5205817;28;20025;-74
2024/02/14 10:10:50;;;;;;;4.47;2.00;;;;;;;9.71;100.00;100619.25;5201478;28;20111;-75
2024/02/14 10:13:21;;;;;;;3.78;1.63;;;;;;;9.81;100.00;100618.91;5182481;28;20479;-75
2024/02/14 10:15:52;;;;;;;3.83;1.80;;;;;;;9.84;100.00;100620.56;5197154;28;20091;-75
2024/02/14 10:18:22;;;;;;;9.18;1.80;;;;;;;9.89;100.00;100627.34;5199812;28;20395;-75
2024/02/14 10:20:54;;;;;;;5.47;1.67;;;;;;;9.88;100.00;100633.47;5199183;28;20123;-75
2024/02/14 10:23:27;;;;;;;9.98;2.20;;;;;;;9.97;100.00;100637.56;5180703;28;20037;-73
2024/02/14 10:25:58;;;;;;;5.93;2.20;;;;;;;10.00;100.00;100640.91;5182246;28;20948;-75
2024/02/14 10:28:29;;;;;;;4.07;1.83;;;;;;;10.05;100.00;100643.41;5196671;28;20078;-75
2024/02/14 10:30:59;;;;;;;5.05;1.60;;;;;;;10.05;100.00;100638.19;5198834;28;20252;-75
2024/02/14 10:33:30;;;;;;;4.97;1.60;;;;;;;9.93;100.00;100646.38;5197483;28;20545;-75
2024/02/14 10:36:02;;;;;;;4.73;1.67;;;;;;;10.03;100.00;100650.44;5180675;28;20091;-75
2024/02/14 10:38:33;;;;;;;6.07;1.70;;;;;;;10.11;100.00;100643.19;5197730;28;20363;-75
2024/02/14 10:41:03;;;;;;;4.70;1.70;;;;;;;10.06;100.00;100645.97;5202892;28;20112;-75
2024/02/14 10:43:33;;;;;;;3.08;1.60;;;;;;;10.06;100.00;100652.94;5197935;28;20036;-75
2024/02/14 10:46:12;;;;;;;5.00;1.80;;;;;;;10.06;100.00;100658.16;5197336;28;20029;-75
2024/02/14 10:48:42;;;;;;;6.72;2.25;;;;;;;10.18;100.00;100656.00;5195537;28;20073;-75
2024/02/14 10:51:15;;;;;;;7.40;2.13;;;;;;;10.21;100.00;100662.91;5200689;28;20037;-74
2024/02/14 10:53:47;;;;;;;5.57;2.10;;;;;;;10.29;100.00;100653.91;5199141;28;20033;-75
2024/02/14 10:56:19;;;;;;;7.75;2.42;;;;;;;10.43;100.00;100646.47;5200758;28;20488;-75
2024/02/14 10:58:55;;;;;;;7.85;2.50;;;;;;;10.43;100.00;100650.81;5197565;28;20079;-74
2024/02/14 11:01:30;;;;;;;8.18;2.80;;;;;;;10.59;100.00;100663.34;5199733;28;20577;-74
2024/02/14 11:04:02;;;;;;;9.80;2.45;;;;;;;10.73;100.00;100662.84;5199016;28;20079;-75
2024/02/14 11:06:44;;;;;;;6.18;2.40;;;;;;;10.69;100.00;100663.88;5200471;28;20045;-75
2024/02/14 11:09:15;;;;;;;7.47;2.40;;;;;;;10.82;100.00;100659.94;5179900;28;20341;-75
2024/02/14 11:11:46;;;;;;;8.05;2.60;;;;;;;10.91;100.00;100651.75;5201826;28;20112;-75
2024/02/14 11:14:21;;;;;;;6.13;2.47;;;;;;;11.04;100.00;100657.34;5182023;28;20029;-75
2024/02/14 11:16:52;;;;;;;5.28;2.10;;;;;;;11.10;100.00;100666.72;5196937;28;20029;-75
2024/02/14 11:19:33;;;;;;;6.20;2.20;;;;;;;10.94;100.00;100659.47;5195317;28;20704;-74
2024/02/14 11:22:17;;;;;;;4.28;1.85;;;;;;;11.15;100.00;100665.66;5197675;28;20112;-75
2024/02/14 11:24:49;;;;;;;6.60;2.53;;;;;;;11.31;100.00;100661.53;5198168;28;20029;-75
2024/02/14 11:27:20;;;;;;;7.43;2.30;;;;;;;11.47;100.00;100667.06;5196788;28;20426;-74
2024/02/14 11:29:53;;;;;;;6.85;2.17;;;;;;;11.57;100.00;100664.09;5200458;28;20883;-75
2024/02/14 11:32:24;;;;;;;4.78;1.85;;;;;;;11.59;100.00;100667.50;5199740;28;20433;-75
2024/02/14 11:34:56;;;;;;;5.45;2.00;;;;;;;11.64;100.00;100668.16;5200454;28;20028;-75
2024/02/14 11:37:31;;;;;;;4.68;2.03;;;;;;;11.76;100.00;100665.06;5201447;28;20021;-73
2024/02/14 11:40:02;;;;;;;5.63;1.98;;;;;;;11.74;100.00;100676.50;5198895;28;20025;-75
2024/02/14 11:42:32;;;;;;;6.07;2.00;;;;;;;11.60;100.00;100671.81;5197929;28;20481;-74
2024/02/14 11:45:02;;;;;;;3.38;2.10;;;;;;;11.81;100.00;100678.00;5197861;28;20033;-74
2024/02/14 11:47:34;;;;;;;4.18;1.77;;;;;;;11.75;100.00;100683.47;5179258;28;20035;-74